Terminal Aerodrome Forecast
Issued by NWS

Home | Current Version | Previous Version | Text Only | Print | Product List | Glossary On
Versions: 1 2 3 4 5 6 7 8 9 10 11 12 13 14 15 16 17 18 19 20
000
FTUS44 KBMX 010500
TAFANB
TAF
KANB 010538Z 0106/0206 31012KT P6SM SCT040
     FM011500 32019G30KT P6SM SKC
     FM020000 32008KT P6SM SKC
     FM020300 32004KT P6SM SKC=

USA.gov is the U.S. government's official web portal to all federal, state and local government web resources and services.